createdAt,value
2022-08-20T00:02:27.482Z,19.76
2022-08-20T00:07:29.264Z,19.72
2022-08-20T00:12:30.923Z,19.67
2022-08-20T00:17:37.095Z,19.63
2022-08-20T00:22:38.839Z,19.68
2022-08-20T00:27:40.509Z,19.68
2022-08-20T00:32:44.080Z,19.69
2022-08-20T00:37:45.814Z,19.68
2022-08-20T00:42:49.827Z,19.67
2022-08-20T00:47:51.771Z,19.66
2022-08-20T00:52:53.723Z,19.58
2022-08-20T00:58:01.112Z,19.55
2022-08-20T01:03:03.771Z,19.56
2022-08-20T01:08:05.456Z,19.58
2022-08-20T01:13:12.492Z,19.51
2022-08-20T01:18:16.449Z,19.44
2022-08-20T01:23:30.334Z,19.46
2022-08-20T01:28:35.415Z,19.42
2022-08-20T01:33:37.083Z,19.42
2022-08-20T01:38:38.856Z,19.42
2022-08-20T01:43:41.843Z,19.47
2022-08-20T01:48:43.584Z,19.51
2022-08-20T01:53:47.515Z,19.43
2022-08-20T01:58:55.970Z,19.35
2022-08-20T02:04:01.954Z,19.28
2022-08-20T02:09:04.103Z,19.23
2022-08-20T02:14:07.239Z,19.15
2022-08-20T02:19:15.166Z,19.10
2022-08-20T02:24:16.814Z,19.06
2022-08-20T02:29:18.519Z,19.06
2022-08-20T02:34:22.925Z,19.12
2022-08-20T02:39:26.667Z,19.13
2022-08-20T02:44:28.327Z,19.11
2022-08-20T02:49:30.169Z,19.15
2022-08-20T02:54:31.863Z,19.15
2022-08-20T02:59:33.567Z,19.15
2022-08-20T03:04:35.302Z,19.08
2022-08-20T03:09:37.055Z,19.06
2022-08-20T03:14:38.705Z,18.98
2022-08-20T03:19:40.365Z,18.98
2022-08-20T03:24:42.102Z,18.92
2022-08-20T03:29:43.776Z,18.91
2022-08-20T03:34:45.470Z,18.88
2022-08-20T03:39:47.289Z,18.88
2022-08-20T03:44:49.223Z,18.87
2022-08-20T03:50:01.126Z,18.86
2022-08-20T03:55:03.478Z,18.84
2022-08-20T04:00:06.423Z,18.75
2022-08-20T04:05:13.503Z,18.66
2022-08-20T04:10:15.146Z,18.57
2022-08-20T04:15:17.187Z,18.56
2022-08-20T04:20:23.704Z,18.59
2022-08-20T04:25:25.360Z,18.58
2022-08-20T04:30:28.843Z,18.60
2022-08-20T04:35:30.803Z,18.59
2022-08-20T04:40:51.415Z,18.61
2022-08-20T04:45:53.633Z,18.61
2022-08-20T04:50:55.697Z,18.62
2022-08-20T04:56:00.748Z,18.67
2022-08-20T05:01:07.136Z,18.70
2022-08-20T05:06:09.800Z,18.70
2022-08-20T05:11:35.902Z,18.67
2022-08-20T05:16:37.935Z,18.60
2022-08-20T05:21:39.731Z,18.56
2022-08-20T05:26:41.445Z,18.59
2022-08-20T05:31:43.280Z,18.63
2022-08-20T05:36:48.160Z,18.69
2022-08-20T05:41:51.188Z,18.71
2022-08-20T05:46:52.854Z,18.77
2022-08-20T05:51:54.588Z,18.81
2022-08-20T05:56:56.398Z,18.91
2022-08-20T06:01:58.087Z,18.94
2022-08-20T06:07:04.830Z,18.88
2022-08-20T06:12:08.838Z,18.86
2022-08-20T06:17:15.620Z,18.87
2022-08-20T06:22:19.580Z,18.88
2022-08-20T06:27:26.309Z,18.88
2022-08-20T06:32:32.007Z,18.89
2022-08-20T06:37:36.477Z,18.86
2022-08-20T06:42:47.854Z,18.82
2022-08-20T06:47:50.192Z,18.80
2022-08-20T06:52:53.207Z,18.85
2022-08-20T06:58:02.631Z,18.92
2022-08-20T07:03:04.865Z,19.02
2022-08-20T07:08:06.543Z,19.15
2022-08-20T07:13:09.264Z,19.28
2022-08-20T07:18:11.116Z,19.39
2022-08-20T07:23:12.784Z,19.39
2022-08-20T07:28:16.501Z,19.57
2022-08-20T07:33:18.383Z,19.73
2022-08-20T07:38:24.786Z,19.79
2022-08-20T07:43:26.478Z,19.79
2022-08-20T07:48:32.478Z,19.97
2022-08-20T07:53:36.169Z,20.00
2022-08-20T07:58:39.311Z,19.91
2022-08-20T08:03:49.717Z,19.90
2022-08-20T08:08:52.209Z,19.89
2022-08-20T08:13:54.526Z,19.87
2022-08-20T08:19:01.253Z,19.84
2022-08-20T08:24:03.873Z,19.89
2022-08-20T08:29:07.536Z,19.98
2022-08-20T08:34:10.354Z,20.16
2022-08-20T08:39:12.012Z,20.31
2022-08-20T08:44:23.069Z,20.46
2022-08-20T08:49:37.603Z,20.60
2022-08-20T08:54:42.463Z,20.84
2022-08-20T08:59:47.375Z,21.06
2022-08-20T09:05:14.917Z,21.32
2022-08-20T09:10:17.527Z,21.62
2022-08-20T09:15:24.907Z,21.77
2022-08-20T09:20:27.169Z,21.77
2022-08-20T09:25:28.982Z,21.91
2022-08-20T09:30:30.693Z,21.83
2022-08-20T09:35:32.495Z,21.88
2022-08-20T09:40:34.674Z,21.87
2022-08-20T09:45:36.459Z,21.90
2022-08-20T09:50:38.933Z,21.76
2022-08-20T09:55:41.813Z,21.69
2022-08-20T10:00:43.477Z,21.62
2022-08-20T10:05:45.200Z,21.63
2022-08-20T10:10:46.877Z,21.67
2022-08-20T10:15:48.551Z,21.67
2022-08-20T10:20:50.241Z,21.75
2022-08-20T10:25:51.932Z,21.92
2022-08-20T10:30:53.580Z,21.94
2022-08-20T10:35:59.648Z,21.95
2022-08-20T10:41:01.824Z,21.96
2022-08-20T10:46:03.587Z,21.99
2022-08-20T10:51:05.352Z,22.06
2022-08-20T10:56:07.256Z,22.19
2022-08-20T11:01:08.997Z,22.20
2022-08-20T11:06:10.674Z,22.22
2022-08-20T11:11:14.502Z,22.23
2022-08-20T11:16:16.163Z,22.39
2022-08-20T11:21:17.864Z,22.54
2022-08-20T11:26:22.229Z,22.57
2022-08-20T11:31:23.931Z,22.63
2022-08-20T11:36:26.443Z,22.50
2022-08-20T11:41:28.116Z,22.60
2022-08-20T11:46:29.825Z,22.58
2022-08-20T11:51:31.470Z,22.73
2022-08-20T11:56:51.489Z,22.82
2022-08-20T12:02:02.851Z,22.94
2022-08-20T12:07:10.245Z,23.03
2022-08-20T12:12:12.117Z,23.22
2022-08-20T12:17:23.962Z,23.55
2022-08-20T12:22:25.769Z,23.37
2022-08-20T12:27:28.950Z,23.42
2022-08-20T12:32:31.234Z,23.42
2022-08-20T12:37:32.911Z,23.44
2022-08-20T12:42:34.648Z,23.20
2022-08-20T12:47:38.188Z,22.19
2022-08-20T12:52:39.869Z,21.58
2022-08-20T12:57:52.636Z,21.07
2022-08-20T13:02:55.098Z,20.79
2022-08-20T13:07:56.898Z,20.40
2022-08-20T13:12:59.068Z,20.10
2022-08-20T13:18:01.739Z,20.04
2022-08-20T13:23:04.407Z,20.13
2022-08-20T13:28:06.103Z,20.27
2022-08-20T13:33:07.774Z,20.57
2022-08-20T13:38:09.444Z,20.98
2022-08-20T13:43:11.965Z,21.60
2022-08-20T13:48:14.903Z,22.22
2022-08-20T13:53:17.547Z,22.68
2022-08-20T13:58:21.641Z,23.05
2022-08-20T14:03:25.273Z,23.24
2022-08-20T14:08:27.439Z,23.38
2022-08-20T14:13:29.183Z,23.70
2022-08-20T14:18:30.857Z,23.81
2022-08-20T14:23:32.526Z,24.10
2022-08-20T14:28:38.653Z,23.93
2022-08-20T14:33:44.423Z,23.75
2022-08-20T14:38:46.415Z,23.60
2022-08-20T14:43:48.191Z,23.55
2022-08-20T14:48:53.300Z,23.93
2022-08-20T14:53:55.233Z,24.32
2022-08-20T14:58:56.896Z,25.31
2022-08-20T15:03:58.561Z,26.22
2022-08-20T15:09:00.225Z,27.14
2022-08-20T15:14:01.920Z,26.93
2022-08-20T15:19:03.799Z,26.98
2022-08-20T15:24:05.577Z,27.46
2022-08-20T15:29:23.050Z,28.14
2022-08-20T15:34:25.240Z,28.40
2022-08-20T15:39:27.879Z,28.32
2022-08-20T15:44:29.534Z,28.09
2022-08-20T15:49:31.188Z,27.73
2022-08-20T15:54:32.852Z,27.74
2022-08-20T16:00:22.882Z,27.70
2022-08-20T16:05:38.767Z,27.87
2022-08-20T16:10:46.421Z,28.28
2022-08-20T16:15:49.660Z,28.35
2022-08-20T16:20:52.711Z,28.01
2022-08-20T16:26:28.351Z,27.96
2022-08-20T16:31:32.764Z,27.52
2022-08-20T16:36:46.189Z,26.90
2022-08-20T16:42:00.472Z,26.63
2022-08-20T16:47:28.284Z,26.98
2022-08-20T16:52:29.959Z,27.27
2022-08-20T16:57:31.642Z,27.48
2022-08-20T17:02:33.305Z,27.54
2022-08-20T17:07:46.983Z,27.50
2022-08-20T17:12:54.334Z,27.71
2022-08-20T17:17:56.223Z,27.69
2022-08-20T17:23:18.245Z,27.74
2022-08-20T17:28:20.440Z,27.76
2022-08-20T17:33:30.049Z,27.35
2022-08-20T17:38:45.663Z,27.40
2022-08-20T17:43:47.335Z,27.52
2022-08-20T17:48:49.154Z,27.45
2022-08-20T17:53:53.300Z,27.39
2022-08-20T17:59:03.107Z,27.29
2022-08-20T18:04:05.420Z,27.04
2022-08-20T18:09:13.189Z,26.71
2022-08-20T18:14:19.375Z,26.43
2022-08-20T18:19:42.120Z,26.19
2022-08-20T18:24:55.483Z,25.92
2022-08-20T18:29:58.845Z,25.73
2022-08-20T18:35:11.343Z,25.32
2022-08-20T18:40:17.555Z,24.97
2022-08-20T18:45:33.644Z,24.71
2022-08-20T18:50:40.967Z,24.52
2022-08-20T18:55:44.968Z,24.24
2022-08-20T19:00:48.971Z,24.00
2022-08-20T19:06:26.732Z,23.82
2022-08-20T19:11:56.936Z,23.64
2022-08-20T19:17:10.043Z,23.52
2022-08-20T19:22:12.986Z,23.40
2022-08-20T19:27:14.629Z,23.32
2022-08-20T19:32:23.584Z,23.14
2022-08-20T19:37:39.645Z,22.95
2022-08-20T19:42:49.660Z,22.91
2022-08-20T19:48:07.999Z,22.75
2022-08-20T19:53:26.452Z,22.55
2022-08-20T19:58:32.409Z,22.41
2022-08-20T20:03:35.179Z,22.26
2022-08-20T20:08:43.331Z,22.05
2022-08-20T20:13:45.086Z,21.85
2022-08-20T20:18:58.847Z,21.75
2022-08-20T20:24:08.546Z,21.61
2022-08-20T20:29:18.916Z,21.57
2022-08-20T20:34:29.143Z,21.42
2022-08-20T20:39:36.156Z,21.28
2022-08-20T20:44:41.976Z,21.13
2022-08-20T20:49:52.217Z,20.95
2022-08-20T20:55:05.033Z,20.85
2022-08-20T21:00:13.666Z,20.72
2022-08-20T21:05:16.488Z,20.71
2022-08-20T21:10:19.372Z,20.53
2022-08-20T21:15:22.010Z,20.57
2022-08-20T21:20:23.853Z,20.43
2022-08-20T21:25:26.691Z,20.32
2022-08-20T21:30:28.506Z,20.20
2022-08-20T21:35:30.251Z,20.14
2022-08-20T21:40:31.955Z,19.99
2022-08-20T21:45:33.818Z,19.83
2022-08-20T21:50:35.572Z,19.75
2022-08-20T21:55:39.583Z,19.66
2022-08-20T22:00:57.856Z,19.55
2022-08-20T22:06:00.392Z,19.45
2022-08-20T22:11:02.036Z,19.40
2022-08-20T22:16:06.211Z,19.40
2022-08-20T22:21:10.464Z,19.32
2022-08-20T22:26:12.308Z,19.26
2022-08-20T22:31:14.241Z,19.26
2022-08-20T22:36:15.971Z,19.24
2022-08-20T22:41:18.086Z,19.33
2022-08-20T22:46:19.768Z,19.31
2022-08-20T22:51:32.556Z,19.25
2022-08-20T22:56:37.031Z,19.17
2022-08-20T23:01:39.230Z,19.12
2022-08-20T23:06:41.048Z,19.09
2022-08-20T23:11:42.696Z,19.06
2022-08-20T23:16:45.260Z,19.01
2022-08-20T23:21:48.088Z,18.92
2022-08-20T23:26:53.124Z,18.83
2022-08-20T23:31:55.655Z,18.79
2022-08-20T23:36:57.519Z,18.72
2022-08-20T23:41:59.285Z,18.62
2022-08-20T23:47:02.059Z,18.58
2022-08-20T23:52:03.798Z,18.48
2022-08-20T23:57:08.102Z,18.38
